createdAt,value
2019-04-21T00:02:03.410Z,41.40
2019-04-21T00:04:42.977Z,41.30
2019-04-21T00:07:22.161Z,41.60
2019-04-21T00:09:52.370Z,42.00
2019-04-21T00:12:22.775Z,42.10
2019-04-21T00:14:47.152Z,42.20
2019-04-21T00:17:09.515Z,41.80
2019-04-21T00:19:39.538Z,42.30
2019-04-21T00:22:24.773Z,41.30
2019-04-21T00:24:56.171Z,41.30
2019-04-21T00:27:24.443Z,41.70
2019-04-21T00:29:59.330Z,41.90
2019-04-21T00:32:25.655Z,41.40
2019-04-21T00:34:50.434Z,41.50
2019-04-21T00:37:20.742Z,41.80
2019-04-21T00:40:03.659Z,42.00
2019-04-21T00:42:29.294Z,41.90
2019-04-21T00:45:00.837Z,41.70
2019-04-21T00:47:34.752Z,42.40
2019-04-21T00:50:05.090Z,42.40
2019-04-21T00:52:52.568Z,42.20
2019-04-21T00:55:21.872Z,42.20
2019-04-21T00:57:45.320Z,42.70
2019-04-21T01:00:15.825Z,42.20
2019-04-21T01:02:45.072Z,42.60
2019-04-21T01:05:16.541Z,43.40
2019-04-21T01:07:42.238Z,43.50
2019-04-21T01:10:05.233Z,43.70
2019-04-21T01:12:43.445Z,43.40
2019-04-21T01:15:18.460Z,43.60
2019-04-21T01:17:46.066Z,43.40
2019-04-21T01:20:10.445Z,44.00
2019-04-21T01:22:25.462Z,44.40
2019-04-21T01:25:04.353Z,44.10
2019-04-21T01:27:46.240Z,44.10
2019-04-21T01:30:16.347Z,43.80
2019-04-21T01:32:51.186Z,44.30
2019-04-21T01:35:15.047Z,43.80
2019-04-21T01:37:50.837Z,44.20
2019-04-21T01:40:22.873Z,43.90
2019-04-21T01:42:48.061Z,44.20
2019-04-21T01:45:18.896Z,43.30
2019-04-21T01:47:47.793Z,43.20
2019-04-21T01:50:09.919Z,43.90
2019-04-21T01:52:55.873Z,43.90
2019-04-21T01:55:25.162Z,44.20
2019-04-21T01:57:49.590Z,44.30
2019-04-21T02:00:21.978Z,43.60
2019-04-21T02:02:59.547Z,44.50
2019-04-21T02:05:31.293Z,44.50
2019-04-21T02:07:56.506Z,44.80
2019-04-21T02:10:35.279Z,44.90
2019-04-21T02:12:56.571Z,44.70
2019-04-21T02:15:34.874Z,45.70
2019-04-21T02:18:04.638Z,46.20
2019-04-21T02:20:21.811Z,44.40
2019-04-21T02:23:17.830Z,44.20
2019-04-21T02:25:33.552Z,44.50
2019-04-21T02:28:03.325Z,44.90
2019-04-21T02:30:50.388Z,45.80
2019-04-21T02:33:18.556Z,45.10
2019-04-21T02:35:50.874Z,45.30
2019-04-21T02:43:20.595Z,44.90
2019-04-21T02:50:47.191Z,44.20
2019-04-21T02:53:22.656Z,44.50
2019-04-21T02:55:43.623Z,44.90
2019-04-21T02:58:25.545Z,45.70
2019-04-21T03:01:14.501Z,44.40
2019-04-21T03:03:50.762Z,44.70
2019-04-21T03:06:27.070Z,44.30
2019-04-21T03:08:57.049Z,44.20
2019-04-21T03:11:14.490Z,44.30
2019-04-21T03:13:54.108Z,45.10
2019-04-21T03:16:25.879Z,44.70
2019-04-21T03:21:16.485Z,44.50
2019-04-21T03:28:52.691Z,44.70
2019-04-21T03:31:41.157Z,44.60
2019-04-21T03:34:29.471Z,44.50
2019-04-21T03:36:41.054Z,44.40
2019-04-21T03:38:51.087Z,44.50
2019-04-21T03:41:22.188Z,44.80
2019-04-21T03:43:50.641Z,44.60
2019-04-21T03:46:26.583Z,44.10
2019-04-21T03:48:53.995Z,44.20
2019-04-21T03:51:20.243Z,44.40
2019-04-21T03:53:46.466Z,44.30
2019-04-21T03:56:42.419Z,44.60
2019-04-21T03:58:58.142Z,45.20
2019-04-21T04:01:44.845Z,45.20
2019-04-21T04:04:27.808Z,43.60
2019-04-21T04:07:25.222Z,44.10
2019-04-21T04:12:03.649Z,43.90
2019-04-21T04:14:44.175Z,44.00
2019-04-21T04:17:11.886Z,43.80
2019-04-21T04:19:34.402Z,43.60
2019-04-21T04:22:04.000Z,44.20
2019-04-21T04:25:01.479Z,44.00
2019-04-21T04:27:20.807Z,43.80
2019-04-21T04:29:44.566Z,43.90
2019-04-21T04:32:10.100Z,44.10
2019-04-21T04:37:26.337Z,44.70
2019-04-21T04:40:02.917Z,44.50
2019-04-21T04:42:31.640Z,45.10
2019-04-21T04:47:22.892Z,43.70
2019-04-21T04:54:59.450Z,44.20
2019-04-21T05:00:01.806Z,44.00
2019-04-21T05:02:33.748Z,44.10
2019-04-21T05:05:17.219Z,44.50
2019-04-21T05:12:22.703Z,44.70
2019-04-21T05:17:28.702Z,44.50
2019-04-21T05:22:22.152Z,44.50
2019-04-21T05:24:44.496Z,44.30
2019-04-21T05:27:33.679Z,43.60
2019-04-21T05:30:17.332Z,43.70
2019-04-21T05:32:48.743Z,43.50
2019-04-21T05:35:16.953Z,45.10
2019-04-21T05:37:50.442Z,45.00
2019-04-21T05:40:15.793Z,45.40
2019-04-21T05:42:45.857Z,44.80
2019-04-21T05:45:22.833Z,45.50
2019-04-21T05:50:23.935Z,44.70
2019-04-21T05:52:44.704Z,44.10
2019-04-21T05:55:34.606Z,44.70
2019-04-21T05:57:57.243Z,44.70
2019-04-21T06:00:46.622Z,45.10
2019-04-21T06:03:04.262Z,46.50
2019-04-21T06:05:39.092Z,44.80
2019-04-21T06:08:00.465Z,44.10
2019-04-21T06:10:34.653Z,44.50
2019-04-21T06:13:05.811Z,43.80
2019-04-21T06:15:39.537Z,45.50
2019-04-21T06:18:04.562Z,44.40
2019-04-21T06:20:33.474Z,44.30
2019-04-21T06:23:02.984Z,44.10
2019-04-21T06:25:48.702Z,44.20
2019-04-21T06:28:10.814Z,42.90
2019-04-21T06:30:46.988Z,43.90
2019-04-21T06:33:00.018Z,43.60
2019-04-21T06:35:58.808Z,43.30
2019-04-21T06:38:27.931Z,43.00
2019-04-21T06:41:00.389Z,42.70
2019-04-21T06:43:42.129Z,41.90
2019-04-21T06:45:52.694Z,42.20
2019-04-21T06:48:24.577Z,42.30
2019-04-21T06:50:52.597Z,43.30
2019-04-21T06:53:35.992Z,42.40
2019-04-21T06:55:52.052Z,42.50
2019-04-21T06:58:19.699Z,42.10
2019-04-21T07:00:47.639Z,41.70
2019-04-21T07:05:58.973Z,41.00
2019-04-21T07:10:53.315Z,42.00
2019-04-21T07:13:21.970Z,41.20
2019-04-21T07:15:55.872Z,41.70
2019-04-21T07:18:30.037Z,42.40
2019-04-21T07:20:53.262Z,42.90
2019-04-21T07:23:32.243Z,42.10
2019-04-21T07:26:01.011Z,41.50
2019-04-21T07:28:25.310Z,41.90
2019-04-21T07:31:00.109Z,41.40
2019-04-21T07:35:56.907Z,41.20
2019-04-21T07:38:27.457Z,39.40
2019-04-21T07:40:45.768Z,41.50
2019-04-21T07:43:20.465Z,40.20
2019-04-21T07:45:49.657Z,42.20
2019-04-21T07:48:24.691Z,41.60
2019-04-21T07:51:07.542Z,41.40
2019-04-21T07:56:19.912Z,42.90
2019-04-21T07:59:02.202Z,41.70
2019-04-21T08:01:40.086Z,41.70
2019-04-21T08:04:08.485Z,41.80
2019-04-21T08:09:08.865Z,40.20
2019-04-21T08:11:32.760Z,41.30
2019-04-21T08:14:24.356Z,40.70
2019-04-21T08:16:39.660Z,39.70
2019-04-21T08:19:08.548Z,38.90
2019-04-21T08:21:43.332Z,39.00
2019-04-21T08:24:07.748Z,39.80
2019-04-21T08:29:18.895Z,36.70
2019-04-21T08:31:50.267Z,34.70
2019-04-21T08:34:17.841Z,34.30
2019-04-21T08:36:40.412Z,33.00
2019-04-21T08:39:06.506Z,34.00
2019-04-21T08:41:39.470Z,33.50
2019-04-21T08:44:09.312Z,33.10
2019-04-21T08:46:42.597Z,33.30
2019-04-21T08:49:10.922Z,32.50
2019-04-21T08:51:51.978Z,30.80
2019-04-21T08:54:15.070Z,30.30
2019-04-21T08:56:46.798Z,31.20
2019-04-21T08:59:26.801Z,29.90
2019-04-21T09:01:53.208Z,31.90
2019-04-21T09:04:39.266Z,29.70
2019-04-21T09:07:04.928Z,29.40
2019-04-21T09:09:29.224Z,29.70
2019-04-21T09:12:01.701Z,29.20
2019-04-21T09:14:31.702Z,25.00
2019-04-21T09:16:56.335Z,27.50
2019-04-21T09:19:39.765Z,28.50
2019-04-21T09:22:02.169Z,27.00
2019-04-21T09:24:28.058Z,25.20
2019-04-21T09:26:58.042Z,23.70
2019-04-21T09:29:23.423Z,24.50
2019-04-21T09:31:46.014Z,24.50
2019-04-21T09:34:20.659Z,26.70
2019-04-21T09:36:48.067Z,22.40
2019-04-21T09:39:18.340Z,21.40
2019-04-21T09:41:44.792Z,20.10
2019-04-21T09:44:20.657Z,21.50
2019-04-21T09:46:50.710Z,21.90
2019-04-21T09:49:18.754Z,25.20
2019-04-21T09:51:44.459Z,23.20
2019-04-21T09:54:20.684Z,21.70
2019-04-21T09:56:52.355Z,22.80
2019-04-21T09:59:20.697Z,23.40
2019-04-21T10:01:54.978Z,24.70
2019-04-21T10:04:14.447Z,21.80
2019-04-21T10:06:43.206Z,23.10
2019-04-21T10:09:16.055Z,21.80
2019-04-21T10:11:41.956Z,22.80
2019-04-21T10:14:11.639Z,22.70
2019-04-21T10:16:54.401Z,28.00
2019-04-21T10:19:25.481Z,20.80
2019-04-21T10:21:54.401Z,22.80
2019-04-21T10:24:24.378Z,22.00
2019-04-21T10:26:53.498Z,23.30
2019-04-21T10:29:25.923Z,22.50
2019-04-21T10:31:52.599Z,25.10
2019-04-21T10:34:21.478Z,21.80
2019-04-21T10:36:50.867Z,23.00
2019-04-21T10:39:19.914Z,24.20
2019-04-21T10:41:48.501Z,25.40
2019-04-21T10:44:17.101Z,23.50
2019-04-21T10:46:48.666Z,25.50
2019-04-21T10:49:17.089Z,24.40
2019-04-21T10:51:46.737Z,24.40
2019-04-21T10:54:15.880Z,24.50
2019-04-21T10:56:45.753Z,26.40
2019-04-21T10:59:14.571Z,24.70
2019-04-21T11:01:43.083Z,24.90
2019-04-21T11:04:21.835Z,24.20
2019-04-21T11:06:46.847Z,24.80
2019-04-21T11:09:15.838Z,24.20
2019-04-21T11:11:46.807Z,24.10
2019-04-21T11:14:15.545Z,24.20
2019-04-21T11:16:46.289Z,25.40
2019-04-21T11:19:15.992Z,23.70
2019-04-21T11:21:44.922Z,25.20
2019-04-21T11:24:14.330Z,22.90
2019-04-21T11:26:43.143Z,24.90
2019-04-21T11:29:12.838Z,24.10
2019-04-21T11:31:41.440Z,27.30
2019-04-21T11:34:11.224Z,27.50
2019-04-21T11:36:40.490Z,24.20
2019-04-21T11:39:30.821Z,24.40
2019-04-21T11:41:50.199Z,26.40
2019-04-21T11:44:21.471Z,27.40
2019-04-21T11:46:49.265Z,25.10
2019-04-21T11:49:18.004Z,25.00
2019-04-21T11:51:46.943Z,25.60
2019-04-21T11:54:15.612Z,23.40
2019-04-21T11:56:45.697Z,24.10
2019-04-21T11:59:15.404Z,21.10
2019-04-21T12:01:45.554Z,22.20
2019-04-21T12:04:16.092Z,22.50
2019-04-21T12:06:47.655Z,21.90
2019-04-21T12:09:15.291Z,22.80
2019-04-21T12:11:45.216Z,22.10
2019-04-21T12:14:14.435Z,22.70
2019-04-21T12:16:43.311Z,25.30
2019-04-21T12:19:12.557Z,24.00
2019-04-21T12:21:54.145Z,23.90
2019-04-21T12:24:11.328Z,25.10
2019-04-21T12:26:40.199Z,22.80
2019-04-21T12:29:09.973Z,24.40
2019-04-21T12:31:57.221Z,22.40
2019-04-21T12:34:26.000Z,24.00
2019-04-21T12:36:55.006Z,23.90
2019-04-21T12:39:24.971Z,23.20
2019-04-21T12:41:54.290Z,23.30
2019-04-21T12:44:22.938Z,23.40
2019-04-21T12:46:51.954Z,24.70
2019-04-21T12:49:21.821Z,24.40
2019-04-21T12:51:51.543Z,24.00
2019-04-21T12:54:21.591Z,24.00
2019-04-21T12:56:51.600Z,26.00
2019-04-21T12:59:21.178Z,27.40
2019-04-21T13:01:50.791Z,23.80
2019-04-21T13:04:19.732Z,22.90
2019-04-21T13:06:49.758Z,24.50
2019-04-21T13:09:20.424Z,24.80
2019-04-21T13:11:48.883Z,21.80
2019-04-21T13:14:17.834Z,25.10
2019-04-21T13:16:47.809Z,24.50
2019-04-21T13:19:17.534Z,26.60
2019-04-21T13:21:46.240Z,24.50
2019-04-21T13:24:15.829Z,23.40
2019-04-21T13:26:50.883Z,23.70
2019-04-21T13:29:16.352Z,24.30
2019-04-21T13:31:45.075Z,25.30
2019-04-21T13:34:13.921Z,21.20
2019-04-21T13:36:43.634Z,22.20
2019-04-21T13:39:50.391Z,23.20
2019-04-21T13:42:16.487Z,24.20
2019-04-21T13:44:37.102Z,22.60
2019-04-21T13:47:06.954Z,21.20
2019-04-21T13:49:37.030Z,23.30
2019-04-21T13:52:06.723Z,24.30
2019-04-21T13:54:35.667Z,26.30
2019-04-21T13:57:04.895Z,23.80
2019-04-21T13:59:34.282Z,23.90
2019-04-21T14:02:04.647Z,23.10
2019-04-21T14:04:33.697Z,23.30
2019-04-21T14:07:02.528Z,24.90
2019-04-21T14:09:40.255Z,22.50
2019-04-21T14:12:01.526Z,24.60
2019-04-21T14:14:30.365Z,24.90
2019-04-21T14:17:00.530Z,25.40
2019-04-21T14:19:30.996Z,24.40
2019-04-21T14:22:01.103Z,23.30
2019-04-21T14:24:30.910Z,23.60
2019-04-21T14:27:00.551Z,23.00
2019-04-21T14:29:29.194Z,24.80
2019-04-21T14:31:58.096Z,25.00
2019-04-21T14:34:28.036Z,24.00
2019-04-21T14:36:56.911Z,21.80
2019-04-21T14:39:30.293Z,20.20
2019-04-21T14:42:00.050Z,22.10
2019-04-21T14:44:29.215Z,21.90
2019-04-21T14:47:03.088Z,22.50
2019-04-21T14:49:49.504Z,22.90
2019-04-21T14:52:21.117Z,22.60
2019-04-21T14:54:51.457Z,22.30
2019-04-21T14:57:21.232Z,26.90
2019-04-21T14:59:50.983Z,26.90
2019-04-21T15:02:20.297Z,23.90
2019-04-21T15:04:49.267Z,22.20
2019-04-21T15:07:18.968Z,22.00
2019-04-21T15:09:59.663Z,23.10
2019-04-21T15:12:18.289Z,22.10
2019-04-21T15:14:47.667Z,22.70
2019-04-21T15:17:18.944Z,24.00
2019-04-21T15:19:53.989Z,24.10
2019-04-21T15:22:16.768Z,24.10
2019-04-21T15:24:45.272Z,23.00
2019-04-21T15:27:14.702Z,25.80
2019-04-21T15:29:44.623Z,21.50
2019-04-21T15:32:14.862Z,22.30
2019-04-21T15:34:44.394Z,21.80
2019-04-21T15:37:13.699Z,20.40
2019-04-21T15:39:42.498Z,19.60
2019-04-21T15:42:12.515Z,22.20
2019-04-21T15:44:42.788Z,22.20
2019-04-21T15:47:11.388Z,22.10
2019-04-21T15:50:03.022Z,20.50
2019-04-21T15:52:25.774Z,21.10
2019-04-21T15:54:56.883Z,21.80
2019-04-21T15:57:27.983Z,21.30
2019-04-21T16:00:02.674Z,19.90
2019-04-21T16:02:40.397Z,20.40
2019-04-21T16:05:10.845Z,19.10
2019-04-21T16:07:40.343Z,19.80
2019-04-21T16:10:11.643Z,19.80
2019-04-21T16:12:40.200Z,23.60
2019-04-21T16:15:10.437Z,22.40
2019-04-21T16:17:39.479Z,21.70
2019-04-21T16:20:10.171Z,23.90
2019-04-21T16:22:38.937Z,21.90
2019-04-21T16:25:08.659Z,21.60
2019-04-21T16:27:37.303Z,21.60
2019-04-21T16:30:10.018Z,21.80
2019-04-21T16:32:38.549Z,22.40
2019-04-21T16:35:10.674Z,21.60
2019-04-21T16:37:39.427Z,22.70
2019-04-21T16:40:09.529Z,22.80
2019-04-21T16:42:38.480Z,22.40
2019-04-21T16:45:10.603Z,22.40
2019-04-21T16:47:40.000Z,22.50
2019-04-21T16:50:09.827Z,22.70
2019-04-21T16:52:40.335Z,20.20
2019-04-21T16:55:12.853Z,18.90
2019-04-21T16:58:03.081Z,21.00
2019-04-21T17:00:31.746Z,25.00
2019-04-21T17:02:54.705Z,21.40
2019-04-21T17:05:24.524Z,28.00
2019-04-21T17:07:53.261Z,21.40
2019-04-21T17:10:22.494Z,21.50
2019-04-21T17:12:51.422Z,23.40
2019-04-21T17:15:37.668Z,22.60
2019-04-21T17:18:10.139Z,22.30
2019-04-21T17:20:34.133Z,21.30
2019-04-21T17:22:53.550Z,22.00
2019-04-21T17:25:24.941Z,21.40
2019-04-21T17:27:53.245Z,23.00
2019-04-21T17:30:24.176Z,27.20
2019-04-21T17:32:53.732Z,29.40
2019-04-21T17:35:22.964Z,29.50
2019-04-21T17:37:52.055Z,30.20
2019-04-21T17:40:24.206Z,29.70
2019-04-21T17:43:01.506Z,31.70
2019-04-21T17:45:23.724Z,30.00
2019-04-21T17:47:59.310Z,30.70
2019-04-21T17:50:25.489Z,31.70
2019-04-21T17:53:16.183Z,29.60
2019-04-21T17:55:54.194Z,29.70
2019-04-21T17:59:47.645Z,30.50
2019-04-21T18:02:04.674Z,30.70
2019-04-21T18:04:34.784Z,31.20
2019-04-21T18:07:15.528Z,31.40
2019-04-21T18:09:56.202Z,32.70
2019-04-21T18:12:16.945Z,32.70
2019-04-21T18:14:36.760Z,32.90
2019-04-21T18:17:06.560Z,34.30
2019-04-21T18:19:39.385Z,32.10
2019-04-21T18:22:14.738Z,33.60
2019-04-21T18:24:54.465Z,33.30
2019-04-21T18:27:15.718Z,32.20
2019-04-21T18:29:44.530Z,32.30
2019-04-21T18:32:18.514Z,32.90
2019-04-21T18:34:52.357Z,33.30
2019-04-21T18:37:27.141Z,31.50
2019-04-21T18:40:03.797Z,32.20
2019-04-21T18:42:55.520Z,33.80
2019-04-21T18:48:04.879Z,33.50
2019-04-21T18:50:51.077Z,34.20
2019-04-21T18:53:32.033Z,33.20
2019-04-21T18:55:52.880Z,33.10
2019-04-21T18:58:18.116Z,32.40
2019-04-21T19:00:48.616Z,33.80
2019-04-21T19:03:25.267Z,33.50
2019-04-21T19:05:53.178Z,34.30
2019-04-21T19:08:40.568Z,34.30
2019-04-21T19:11:09.535Z,33.70
2019-04-21T19:13:52.677Z,33.40
2019-04-21T19:16:31.279Z,33.50
2019-04-21T19:18:56.935Z,31.50
2019-04-21T19:21:05.663Z,33.10
2019-04-21T19:26:23.344Z,33.30
2019-04-21T19:28:50.121Z,34.00
2019-04-21T19:31:20.143Z,33.80
2019-04-21T19:33:40.388Z,32.20
2019-04-21T19:35:53.438Z,32.30
2019-04-21T19:38:31.624Z,33.20
2019-04-21T19:41:11.427Z,33.00
2019-04-21T19:43:40.915Z,34.00
2019-04-21T19:46:09.745Z,33.90
2019-04-21T19:48:47.516Z,35.00
2019-04-21T19:51:10.440Z,33.40
2019-04-21T19:53:37.096Z,32.60
2019-04-21T19:55:54.154Z,31.50
2019-04-21T19:58:28.878Z,35.20
2019-04-21T20:00:57.276Z,35.70
2019-04-21T20:03:24.385Z,33.10
2019-04-21T20:06:02.179Z,32.70
2019-04-21T20:08:37.507Z,32.30
2019-04-21T20:11:10.707Z,33.20
2019-04-21T20:13:52.731Z,34.80
2019-04-21T20:16:16.196Z,35.80
2019-04-21T20:18:32.577Z,34.70
2019-04-21T20:20:56.149Z,35.30
2019-04-21T20:23:28.676Z,36.00
2019-04-21T20:26:00.739Z,35.30
2019-04-21T20:28:36.968Z,34.80
2019-04-21T20:31:14.621Z,35.50
2019-04-21T20:33:57.987Z,36.60
2019-04-21T20:36:20.114Z,37.10
2019-04-21T20:38:35.327Z,35.70
2019-04-21T20:41:02.010Z,35.70
2019-04-21T20:43:47.168Z,35.70
2019-04-21T20:46:11.833Z,36.00
2019-04-21T20:48:42.183Z,35.80
2019-04-21T20:51:14.582Z,36.20
2019-04-21T20:53:45.204Z,34.90
2019-04-21T20:56:11.194Z,36.50
2019-04-21T20:58:45.291Z,36.90
2019-04-21T21:03:57.839Z,36.30
2019-04-21T21:06:14.409Z,36.40
2019-04-21T21:08:49.938Z,36.70
2019-04-21T21:11:15.135Z,37.70
2019-04-21T21:13:49.125Z,37.10
2019-04-21T21:16:20.151Z,37.70
2019-04-21T21:21:18.379Z,36.70
2019-04-21T21:23:48.020Z,36.60
2019-04-21T21:26:21.939Z,36.70
2019-04-21T21:28:42.954Z,37.00
2019-04-21T21:31:22.691Z,37.40
2019-04-21T21:33:59.223Z,35.50
2019-04-21T21:36:19.248Z,36.50
2019-04-21T21:38:54.592Z,36.00
2019-04-21T21:41:13.866Z,36.10
2019-04-21T21:43:34.535Z,36.80
2019-04-21T21:46:15.308Z,36.70
2019-04-21T21:48:47.481Z,36.70
2019-04-21T21:51:10.653Z,37.20
2019-04-21T21:53:36.242Z,36.80
2019-04-21T21:56:06.790Z,36.70
2019-04-21T21:58:41.502Z,37.10
2019-04-21T22:01:08.723Z,36.90
2019-04-21T22:03:42.744Z,36.60
2019-04-21T22:06:13.603Z,36.70
2019-04-21T22:08:38.679Z,36.40
2019-04-21T22:11:07.204Z,37.30
2019-04-21T22:13:49.046Z,36.80
2019-04-21T22:16:12.251Z,37.20
2019-04-21T22:19:02.720Z,37.80
2019-04-21T22:21:20.369Z,37.90
2019-04-21T22:23:51.336Z,36.50
2019-04-21T22:26:18.991Z,36.10
2019-04-21T22:28:47.703Z,36.90
2019-04-21T22:31:21.167Z,38.00
2019-04-21T22:33:50.355Z,37.40
2019-04-21T22:36:31.396Z,38.00
2019-04-21T22:39:05.143Z,37.70
2019-04-21T22:41:26.651Z,38.30
2019-04-21T22:43:51.756Z,37.60
2019-04-21T22:46:18.522Z,38.20
2019-04-21T22:48:53.140Z,39.00
2019-04-21T22:51:23.494Z,38.20
2019-04-21T22:53:50.777Z,38.00
2019-04-21T22:56:25.634Z,38.50
2019-04-21T22:58:50.009Z,38.80
2019-04-21T23:01:25.207Z,39.00
2019-04-21T23:03:55.333Z,38.70
2019-04-21T23:06:25.027Z,38.00
2019-04-21T23:08:51.218Z,38.00
2019-04-21T23:11:20.209Z,37.70
2019-04-21T23:13:55.610Z,38.50
2019-04-21T23:16:26.165Z,37.90
2019-04-21T23:19:13.099Z,39.00
2019-04-21T23:21:36.462Z,38.70
2019-04-21T23:24:08.741Z,38.80
2019-04-21T23:26:37.587Z,38.90
2019-04-21T23:29:15.488Z,39.00
2019-04-21T23:31:40.693Z,39.00
2019-04-21T23:33:52.651Z,39.10
2019-04-21T23:36:26.231Z,38.50
2019-04-21T23:38:53.718Z,38.50
2019-04-21T23:41:26.061Z,38.60
2019-04-21T23:44:01.359Z,38.80
2019-04-21T23:46:26.753Z,39.70
2019-04-21T23:49:07.539Z,39.10
2019-04-21T23:51:37.061Z,39.10
2019-04-21T23:53:53.564Z,38.60
2019-04-21T23:56:30.061Z,39.60
2019-04-21T23:58:59.029Z,40.40
